Time;durP1;ratioP1;P1;durP2;ratioP2;P2;SDS_P1;SDS_P2;PMS_P1;PMS_P2;Temp;Humidity;BMP_temperature;BMP_pressure;BME280_temperature;BME280_humidity;BME280_pressure;Samples;Min_cycle;Max_cycle;Signal;HPM_P1;HPM_P2
2022/03/10 00:00:28;;;;;;;17.50;13.00;;;2.60;62.00;;;;;;5018946;28;20455;-44
2022/03/10 00:02:55;;;;;;;18.80;12.57;;;2.60;62.00;;;;;;5021358;28;20467;-44
2022/03/10 00:05:22;;;;;;;21.10;12.60;;;2.60;62.00;;;;;;5015052;28;20466;-44
2022/03/10 00:07:49;;;;;;;17.23;11.27;;;2.60;62.00;;;;;;5015369;28;20471;-43
2022/03/10 00:10:16;;;;;;;16.30;12.20;;;2.60;62.40;;;;;;5021130;28;20455;-43
2022/03/10 00:12:47;;;;;;;18.83;13.80;;;2.70;62.50;;;;;;5009302;28;20487;-44
2022/03/10 00:15:15;;;;;;;19.10;12.50;;;2.70;62.20;;;;;;5020143;28;20456;-44
2022/03/10 00:17:42;;;;;;;13.93;10.83;;;2.60;62.20;;;;;;5018235;28;20462;-44
2022/03/10 00:20:12;;;;;;;19.23;11.60;;;2.50;62.20;;;;;;5020769;28;20841;-44
2022/03/10 00:22:44;;;;;;;19.30;11.40;;;2.50;62.40;;;;;;5018628;28;20983;-44
2022/03/10 00:25:11;;;;;;;18.90;11.53;;;2.60;62.50;;;;;;5017988;28;20464;-44
2022/03/10 00:27:38;;;;;;;17.60;11.70;;;2.60;62.30;;;;;;5021909;28;20455;-44
2022/03/10 00:30:05;;;;;;;19.63;11.30;;;2.50;62.40;;;;;;5007318;28;20961;-44
2022/03/10 00:32:32;;;;;;;16.50;12.20;;;2.50;62.60;;;;;;5031392;28;21131;-44
2022/03/10 00:34:59;;;;;;;14.43;10.77;;;2.40;62.70;;;;;;5020720;28;20560;-44
2022/03/10 00:37:25;;;;;;;21.33;11.53;;;2.40;62.80;;;;;;5020904;28;20448;-44
2022/03/10 00:39:52;;;;;;;19.50;13.13;;;2.40;62.80;;;;;;5019636;28;20531;-44
2022/03/10 00:42:19;;;;;;;15.83;11.43;;;2.40;63.20;;;;;;5016225;28;20459;-43
2022/03/10 00:44:48;;;;;;;17.67;11.40;;;2.40;63.20;;;;;;5019668;28;20456;-44
2022/03/10 00:47:15;;;;;;;19.07;13.13;;;2.40;63.20;;;;;;5007856;28;20578;-44
2022/03/10 00:49:42;;;;;;;18.33;12.00;;;2.30;63.10;;;;;;5018963;28;20460;-44
2022/03/10 00:52:09;;;;;;;15.83;11.47;;;2.30;63.20;;;;;;5019978;28;21009;-44
2022/03/10 00:54:36;;;;;;;19.87;13.60;;;2.40;63.70;;;;;;5022456;28;20470;-44
2022/03/10 00:57:03;;;;;;;20.70;12.87;;;2.30;63.60;;;;;;5006467;28;20837;-44
2022/03/10 00:59:29;;;;;;;16.50;11.13;;;2.30;63.60;;;;;;5019813;28;20466;-44
2022/03/10 01:01:56;;;;;;;20.30;13.47;;;2.30;63.60;;;;;;5019168;28;20887;-44
2022/03/10 01:04:23;;;;;;;19.80;12.60;;;2.30;63.60;;;;;;5018611;28;20897;-44
2022/03/10 01:06:50;;;;;;;19.00;12.90;;;2.30;64.00;;;;;;5007149;28;20475;-44
2022/03/10 01:09:16;;;;;;;17.40;11.70;;;2.30;63.80;;;;;;5006640;28;20869;-44
2022/03/10 01:11:43;;;;;;;18.40;12.93;;;2.30;63.90;;;;;;5033912;28;20487;-45
2022/03/10 01:14:11;;;;;;;19.70;13.70;;;2.20;63.90;;;;;;5018631;28;20463;-44
2022/03/10 01:16:38;;;;;;;14.57;11.33;;;2.20;64.50;;;;;;5019508;28;20471;-44
2022/03/10 01:19:05;;;;;;;19.00;12.10;;;2.20;64.50;;;;;;5018783;28;20468;-44
2022/03/10 01:21:32;;;;;;;20.17;13.47;;;2.20;64.60;;;;;;5013432;28;20468;-44
2022/03/10 01:23:59;;;;;;;16.47;11.27;;;2.20;64.50;;;;;;5019008;28;20459;-44
2022/03/10 01:26:26;;;;;;;16.23;11.50;;;2.20;64.50;;;;;;5016324;28;20459;-44
2022/03/10 01:28:53;;;;;;;20.50;11.83;;;2.20;64.50;;;;;;5015430;28;20821;-44
2022/03/10 01:31:19;;;;;;;21.27;12.97;;;2.20;64.40;;;;;;5018260;28;20458;-44
2022/03/10 01:33:46;;;;;;;26.30;12.40;;;2.10;64.50;;;;;;5016335;28;20462;-44
2022/03/10 01:36:13;;;;;;;17.70;11.40;;;2.10;64.70;;;;;;5020687;28;20451;-44
2022/03/10 01:38:42;;;;;;;19.37;12.73;;;2.10;64.60;;;;;;5017071;28;20932;-44
2022/03/10 01:41:09;;;;;;;18.53;13.30;;;2.10;64.90;;;;;;5003469;28;20455;-44
2022/03/10 01:43:59;;;;;;;20.43;12.60;;;2.10;64.80;;;;;;5002939;28;20476;-44
2022/03/10 01:46:26;;;;;;;19.07;12.67;;;2.10;64.70;;;;;;5030120;28;21061;-44
2022/03/10 01:48:54;;;;;;;19.13;11.50;;;2.10;64.90;;;;;;5020871;28;20467;-44
2022/03/10 01:51:23;;;;;;;18.97;11.80;;;2.10;64.70;;;;;;5020071;28;20470;-44
2022/03/10 01:53:51;;;;;;;19.93;12.83;;;2.00;64.80;;;;;;5001260;28;20457;-44
2022/03/10 01:56:19;;;;;;;17.23;11.57;;;2.00;64.80;;;;;;5000989;28;20463;-44
2022/03/10 01:58:48;;;;;;;20.80;11.87;;;2.00;64.60;;;;;;5004104;28;20452;-44
2022/03/10 02:01:16;;;;;;;21.37;12.87;;;2.00;64.60;;;;;;5019743;28;20852;-44
2022/03/10 02:03:43;;;;;;;15.10;11.47;;;1.90;64.60;;;;;;5016132;28;20468;-45
2022/03/10 02:06:10;;;;;;;15.50;11.43;;;1.80;64.80;;;;;;5019491;28;20470;-45
2022/03/10 02:11:23;;;;;;;19.83;11.70;;;1.80;64.70;;;;;;5015300;28;20844;-44
2022/03/10 02:13:50;;;;;;;17.63;12.63;;;1.70;64.80;;;;;;5016030;28;20598;-44
2022/03/10 02:19:04;;;;;;;18.33;11.30;;;1.60;64.90;;;;;;5021409;28;20483;-44
2022/03/10 02:21:32;;;;;;;16.30;12.07;;;1.60;64.90;;;;;;5015620;28;20488;-44
2022/03/10 02:23:59;;;;;;;16.87;11.60;;;1.60;64.90;;;;;;5017956;28;20456;-44
2022/03/10 02:26:25;;;;;;;17.73;11.90;;;1.60;65.20;;;;;;5015890;28;20991;-44
2022/03/10 02:28:52;;;;;;;14.07;10.00;;;1.60;65.00;;;;;;5016747;28;20467;-44
2022/03/10 02:31:19;;;;;;;15.47;11.67;;;1.60;64.90;;;;;;5019656;28;20466;-44
2022/03/10 02:33:46;;;;;;;18.83;10.43;;;1.60;64.90;;;;;;5017675;28;20491;-44
2022/03/10 02:36:13;;;;;;;17.23;11.90;;;1.50;65.00;;;;;;5019169;28;20459;-44
2022/03/10 02:38:40;;;;;;;18.00;12.37;;;1.50;64.90;;;;;;5005568;28;21089;-44
2022/03/10 02:41:07;;;;;;;18.50;12.60;;;1.50;65.00;;;;;;5018332;28;20459;-44
2022/03/10 02:43:33;;;;;;;17.30;11.27;;;1.50;65.10;;;;;;5017043;28;20471;-44
2022/03/10 02:46:00;;;;;;;18.40;11.30;;;1.50;65.30;;;;;;5002865;28;20469;-44
2022/03/10 02:48:27;;;;;;;18.10;11.43;;;1.50;65.30;;;;;;5021871;28;20471;-44
2022/03/10 02:50:54;;;;;;;17.87;11.90;;;1.60;65.50;;;;;;5025469;28;20456;-44
2022/03/10 02:53:23;;;;;;;22.70;13.37;;;1.60;65.40;;;;;;5021342;28;21114;-44
2022/03/10 02:55:49;;;;;;;16.77;10.97;;;1.50;65.50;;;;;;5020180;28;20826;-44
2022/03/10 02:58:16;;;;;;;21.47;11.50;;;1.50;65.40;;;;;;5018468;28;20493;-44
2022/03/10 03:00:43;;;;;;;16.07;11.07;;;1.50;65.50;;;;;;5021054;28;20470;-44
2022/03/10 03:03:10;;;;;;;16.83;11.63;;;1.50;65.40;;;;;;5020671;28;20463;-44
2022/03/10 03:05:37;;;;;;;18.27;12.10;;;1.40;65.50;;;;;;5023713;28;20455;-44
2022/03/10 03:08:04;;;;;;;16.70;11.10;;;1.50;65.50;;;;;;5024721;28;20606;-44
2022/03/10 03:10:36;;;;;;;20.90;13.27;;;1.50;65.60;;;;;;5021160;28;20460;-44
2022/03/10 03:13:06;;;;;;;15.30;11.20;;;1.50;65.70;;;;;;5019905;28;20482;-44
2022/03/10 03:15:35;;;;;;;18.23;12.10;;;1.40;65.80;;;;;;5021914;28;20544;-44
2022/03/10 03:18:03;;;;;;;22.47;12.03;;;1.40;65.90;;;;;;5022592;28;20837;-46
2022/03/10 03:20:29;;;;;;;15.47;11.77;;;1.40;66.00;;;;;;5025053;28;20957;-48
2022/03/10 03:22:56;;;;;;;22.40;11.60;;;1.40;66.30;;;;;;5021336;28;20482;-48
2022/03/10 03:25:23;;;;;;;22.23;14.00;;;1.40;66.20;;;;;;5019245;28;20447;-48
2022/03/10 03:27:49;;;;;;;17.47;10.43;;;1.40;66.10;;;;;;5019404;28;20470;-48
2022/03/10 03:30:16;;;;;;;15.57;11.50;;;1.40;66.10;;;;;;5009675;28;20467;-48
2022/03/10 03:32:45;;;;;;;20.20;11.03;;;1.40;66.10;;;;;;5018549;28;20490;-48
2022/03/10 03:35:12;;;;;;;14.87;10.20;;;1.40;66.00;;;;;;5024463;28;20455;-48
2022/03/10 03:37:39;;;;;;;16.93;11.77;;;1.40;66.30;;;;;;5009258;28;20546;-48
2022/03/10 03:40:07;;;;;;;23.23;11.50;;;1.40;66.20;;;;;;5008727;28;20464;-46
2022/03/10 03:42:34;;;;;;;17.30;10.97;;;1.40;66.20;;;;;;5030884;28;20472;-46
2022/03/10 03:45:02;;;;;;;13.37;10.33;;;1.40;66.30;;;;;;5029714;28;20463;-46
2022/03/10 03:47:29;;;;;;;15.70;10.00;;;1.30;66.30;;;;;;5026484;28;20497;-46
2022/03/10 03:49:56;;;;;;;16.37;10.67;;;1.30;66.50;;;;;;5024950;28;20471;-46
2022/03/10 03:52:23;;;;;;;18.00;11.03;;;1.30;66.30;;;;;;5027459;28;20487;-45
2022/03/10 03:54:50;;;;;;;15.67;10.97;;;1.20;66.20;;;;;;5025204;28;20490;-46
2022/03/10 03:57:16;;;;;;;20.03;12.40;;;1.20;66.10;;;;;;5012214;28;20461;-45
2022/03/10 03:59:43;;;;;;;19.13;12.73;;;1.10;66.10;;;;;;5026972;28;20852;-46
2022/03/10 04:02:12;;;;;;;19.70;12.23;;;1.10;66.00;;;;;;5027309;28;20493;-46
2022/03/10 04:04:39;;;;;;;17.90;11.80;;;1.00;65.90;;;;;;5031279;28;20455;-46
2022/03/10 04:07:06;;;;;;;16.77;10.40;;;1.10;66.20;;;;;;5026652;28;20478;-45
2022/03/10 04:09:32;;;;;;;16.23;10.60;;;1.10;66.30;;;;;;5018845;28;20523;-46
2022/03/10 04:12:01;;;;;;;20.40;13.13;;;1.10;66.30;;;;;;5012138;28;20477;-46
2022/03/10 04:14:28;;;;;;;13.73;10.77;;;1.10;66.20;;;;;;5007579;28;20902;-46
2022/03/10 04:16:54;;;;;;;19.00;10.37;;;1.10;66.10;;;;;;5027481;28;20464;-46
2022/03/10 04:19:22;;;;;;;17.00;9.83;;;1.00;66.10;;;;;;5029413;28;20551;-46
2022/03/10 04:21:48;;;;;;;15.00;11.20;;;1.00;66.30;;;;;;5028434;28;20469;-46
2022/03/10 04:24:18;;;;;;;16.50;10.47;;;1.00;66.60;;;;;;5010441;28;20452;-46
2022/03/10 04:26:45;;;;;;;16.30;10.90;;;1.00;66.70;;;;;;5024360;28;20491;-46
2022/03/10 04:29:13;;;;;;;15.90;10.53;;;1.10;66.50;;;;;;5026448;28;20550;-46
2022/03/10 04:31:41;;;;;;;19.37;11.07;;;1.00;66.40;;;;;;5025263;28;20466;-46
2022/03/10 04:34:08;;;;;;;15.00;9.63;;;1.00;66.40;;;;;;5026507;28;21096;-46
2022/03/10 04:36:35;;;;;;;17.40;10.40;;;1.00;66.60;;;;;;5027785;28;20488;-45
2022/03/10 04:39:03;;;;;;;15.53;10.43;;;1.00;66.60;;;;;;5030245;28;20826;-46
2022/03/10 04:41:31;;;;;;;14.30;10.60;;;1.00;66.50;;;;;;5026915;28;20463;-46
2022/03/10 04:43:57;;;;;;;19.90;11.07;;;1.00;66.50;;;;;;5033105;28;20470;-46
2022/03/10 04:46:24;;;;;;;16.70;11.23;;;1.00;66.60;;;;;;5024886;28;21087;-46
2022/03/10 04:48:51;;;;;;;16.73;10.53;;;1.00;66.50;;;;;;5024792;28;20482;-46
2022/03/10 04:51:18;;;;;;;19.73;11.30;;;1.00;66.30;;;;;;5025216;28;20460;-45
2022/03/10 04:53:44;;;;;;;17.40;10.57;;;0.90;66.60;;;;;;5026267;28;20850;-46
2022/03/10 04:56:11;;;;;;;15.70;11.10;;;0.90;66.90;;;;;;5029764;28;20490;-46
2022/03/10 04:58:38;;;;;;;13.27;9.83;;;0.90;67.10;;;;;;5025197;28;20543;-46
2022/03/10 05:01:05;;;;;;;16.73;11.20;;;0.80;67.00;;;;;;5023667;28;20456;-45
2022/03/10 05:03:33;;;;;;;13.23;9.63;;;0.80;67.00;;;;;;5030519;28;20466;-45
2022/03/10 05:06:00;;;;;;;14.83;10.97;;;0.90;66.70;;;;;;5027992;28;21031;-45
2022/03/10 05:08:27;;;;;;;14.20;10.83;;;0.90;66.40;;;;;;5024265;28;20478;-45
2022/03/10 05:10:54;;;;;;;16.90;10.07;;;0.90;66.30;;;;;;5023887;28;20555;-46
2022/03/10 05:13:21;;;;;;;15.03;10.10;;;0.80;66.40;;;;;;5023510;28;20475;-46
2022/03/10 05:15:48;;;;;;;13.47;9.47;;;0.80;66.60;;;;;;5023573;28;20460;-46
2022/03/10 05:18:15;;;;;;;16.60;10.00;;;0.80;67.00;;;;;;5028600;28;20525;-46
2022/03/10 05:20:42;;;;;;;15.80;10.67;;;0.80;66.80;;;;;;5021184;28;20559;-46
2022/03/10 05:23:09;;;;;;;15.33;9.07;;;0.80;66.90;;;;;;5026863;28;20463;-45
2022/03/10 05:25:38;;;;;;;16.70;9.70;;;0.80;66.90;;;;;;5023610;28;20465;-46
2022/03/10 05:28:11;;;;;;;15.77;10.47;;;0.70;66.90;;;;;;5023929;28;20468;-46
2022/03/10 05:30:37;;;;;;;17.80;10.80;;;0.70;67.00;;;;;;5021579;28;20469;-46
2022/03/10 05:33:04;;;;;;;16.67;11.20;;;0.60;67.10;;;;;;5024010;28;20527;-46
2022/03/10 05:35:32;;;;;;;17.27;10.27;;;0.70;67.40;;;;;;5022625;28;20464;-46
2022/03/10 05:37:59;;;;;;;15.80;10.80;;;0.70;67.20;;;;;;5025330;28;20452;-45
2022/03/10 05:40:26;;;;;;;19.13;10.27;;;0.60;67.20;;;;;;5025562;28;20486;-45
2022/03/10 05:42:55;;;;;;;15.80;10.20;;;0.60;67.30;;;;;;5024416;28;20464;-45
2022/03/10 05:45:22;;;;;;;14.90;11.00;;;0.60;67.50;;;;;;5038463;28;20521;-45
2022/03/10 05:47:51;;;;;;;14.30;10.30;;;0.50;67.50;;;;;;5037383;28;20489;-45
2022/03/10 05:50:18;;;;;;;21.20;11.37;;;0.50;67.60;;;;;;5021350;28;20463;-46
2022/03/10 05:52:45;;;;;;;15.03;10.13;;;0.40;67.60;;;;;;5026075;28;20459;-45
2022/03/10 05:55:17;;;;;;;14.17;10.30;;;0.50;67.90;;;;;;5021242;28;20554;-45
2022/03/10 05:57:46;;;;;;;16.37;10.47;;;0.50;67.90;;;;;;5014008;28;20944;-45
2022/03/10 06:00:14;;;;;;;16.23;11.13;;;0.50;67.90;;;;;;5028356;28;20823;-46
2022/03/10 06:02:41;;;;;;;15.77;10.00;;;0.60;68.00;;;;;;5009217;28;20496;-45
2022/03/10 06:05:09;;;;;;;13.37;9.40;;;0.60;68.10;;;;;;5038251;28;20820;-46
2022/03/10 06:07:36;;;;;;;17.37;11.30;;;0.60;67.90;;;;;;5025233;28;20478;-46
2022/03/10 06:10:03;;;;;;;14.60;10.03;;;0.60;67.90;;;;;;5022349;28;20551;-46
2022/03/10 06:12:30;;;;;;;15.73;9.53;;;0.60;67.90;;;;;;5009017;28;20456;-46
2022/03/10 06:15:00;;;;;;;16.67;10.37;;;0.60;68.20;;;;;;5027717;28;20995;-46
2022/03/10 06:17:29;;;;;;;17.27;10.23;;;0.60;68.30;;;;;;5025856;28;20516;-46
2022/03/10 06:19:57;;;;;;;17.43;10.47;;;0.60;68.30;;;;;;5021598;28;20452;-46
2022/03/10 06:22:29;;;;;;;17.70;10.40;;;0.60;68.40;;;;;;5024199;28;20834;-46
2022/03/10 06:24:56;;;;;;;14.03;10.27;;;0.60;68.40;;;;;;5023627;28;20457;-46
2022/03/10 06:27:23;;;;;;;15.20;10.87;;;0.60;68.30;;;;;;5024325;28;20456;-46
2022/03/10 06:29:52;;;;;;;15.77;10.47;;;0.60;68.40;;;;;;5020264;28;20993;-46
2022/03/10 06:32:19;;;;;;;20.50;10.60;;;0.60;68.70;;;;;;5025744;28;20590;-46
2022/03/10 06:34:51;;;;;;;16.70;9.90;;;0.60;68.70;;;;;;5026247;28;20492;-46
2022/03/10 06:37:18;;;;;;;18.50;10.57;;;0.60;68.70;;;;;;5029506;28;20724;-47
2022/03/10 06:39:45;;;;;;;14.73;10.90;;;0.70;68.80;;;;;;5027454;28;20466;-47
2022/03/10 06:42:13;;;;;;;20.80;11.67;;;0.70;68.90;;;;;;5030190;28;20459;-47
2022/03/10 06:44:40;;;;;;;15.70;11.50;;;0.70;68.90;;;;;;5033183;28;20478;-46
2022/03/10 06:47:12;;;;;;;19.00;12.30;;;0.70;69.00;;;;;;5028112;28;20486;-46
2022/03/10 06:49:39;;;;;;;17.33;12.13;;;0.70;69.10;;;;;;5027110;28;20495;-47
2022/03/10 06:52:08;;;;;;;15.80;12.10;;;0.70;69.10;;;;;;5010849;28;20508;-46
2022/03/10 06:54:35;;;;;;;15.50;11.60;;;0.80;69.10;;;;;;5020868;28;20518;-46
2022/03/10 06:57:03;;;;;;;19.90;12.70;;;0.80;69.10;;;;;;5026021;28;20511;-47
2022/03/10 06:59:29;;;;;;;23.37;12.17;;;0.90;69.20;;;;;;5026494;28;20459;-46
2022/03/10 07:01:56;;;;;;;20.10;12.30;;;0.90;69.20;;;;;;5012468;28;20543;-46
2022/03/10 07:04:23;;;;;;;17.20;10.77;;;0.90;69.20;;;;;;5027297;28;20463;-46
2022/03/10 07:06:50;;;;;;;16.10;11.20;;;0.90;69.20;;;;;;5023158;28;21023;-46
2022/03/10 07:09:19;;;;;;;19.23;12.67;;;1.00;69.30;;;;;;5025775;28;20468;-47
2022/03/10 07:11:47;;;;;;;19.40;13.30;;;1.10;69.20;;;;;;5030692;28;20467;-47
2022/03/10 07:14:14;;;;;;;15.30;11.57;;;1.10;69.30;;;;;;5029691;28;20479;-46
2022/03/10 07:16:41;;;;;;;19.73;12.03;;;1.20;69.20;;;;;;5026252;28;20476;-46
2022/03/10 07:19:09;;;;;;;16.83;12.20;;;1.20;69.10;;;;;;5025842;28;20468;-46
2022/03/10 07:21:40;;;;;;;17.00;11.60;;;1.20;69.30;;;;;;5027430;28;20562;-46
2022/03/10 07:24:07;;;;;;;18.17;11.37;;;1.30;69.30;;;;;;5010656;28;20483;-46
2022/03/10 07:26:34;;;;;;;18.00;12.13;;;1.30;69.30;;;;;;5031781;28;20466;-46
2022/03/10 07:29:01;;;;;;;16.70;12.10;;;1.40;69.30;;;;;;5030448;28;20582;-46
2022/03/10 07:31:30;;;;;;;18.80;10.77;;;1.40;69.30;;;;;;5023362;28;20464;-46
2022/03/10 07:33:57;;;;;;;17.33;11.27;;;1.50;69.30;;;;;;5004284;28;20493;-47
2022/03/10 07:36:24;;;;;;;14.20;11.10;;;1.60;69.30;;;;;;5022650;28;22284;-46
2022/03/10 07:38:50;;;;;;;17.60;12.20;;;1.70;69.20;;;;;;5022326;28;20465;-46
2022/03/10 07:41:17;;;;;;;20.40;13.47;;;1.70;69.10;;;;;;5024705;28;20986;-46
2022/03/10 07:43:44;;;;;;;24.90;13.30;;;1.80;69.10;;;;;;5027820;28;20463;-47
2022/03/10 07:46:11;;;;;;;18.77;12.53;;;1.90;69.10;;;;;;5028746;28;20491;-47
2022/03/10 07:48:38;;;;;;;21.97;14.80;;;2.10;69.00;;;;;;5025391;28;20550;-47
2022/03/10 07:51:04;;;;;;;18.10;13.70;;;2.20;69.00;;;;;;5022463;28;20785;-46
2022/03/10 07:53:32;;;;;;;24.57;14.10;;;2.30;68.80;;;;;;5021431;28;20495;-46
2022/03/10 07:55:59;;;;;;;16.50;13.30;;;2.40;68.50;;;;;;5021483;28;20941;-46
2022/03/10 07:58:26;;;;;;;17.10;12.87;;;2.60;68.30;;;;;;5019259;28;20509;-46
2022/03/10 08:00:57;;;;;;;18.37;12.23;;;2.70;67.70;;;;;;5018568;28;20467;-46
2022/03/10 08:03:25;;;;;;;18.53;12.37;;;2.90;66.80;;;;;;5013566;28;20457;-46
2022/03/10 08:05:53;;;;;;;21.40;12.30;;;3.10;65.60;;;;;;5000753;28;20463;-46
2022/03/10 08:08:19;;;;;;;16.40;11.83;;;3.30;65.00;;;;;;5004026;28;20963;-46
2022/03/10 08:10:47;;;;;;;16.63;10.73;;;3.60;64.10;;;;;;5024210;28;20993;-46
2022/03/10 08:13:13;;;;;;;15.80;12.00;;;3.80;63.60;;;;;;5018410;28;20490;-46
2022/03/10 08:15:42;;;;;;;18.63;12.47;;;4.00;63.40;;;;;;5016731;28;20952;-46
2022/03/10 08:18:11;;;;;;;18.70;12.80;;;4.30;62.70;;;;;;5011587;28;21494;-46
2022/03/10 08:20:39;;;;;;;21.37;12.60;;;4.60;61.50;;;;;;5013244;28;20463;-46
2022/03/10 08:23:06;;;;;;;19.50;12.57;;;4.80;60.90;;;;;;5033187;28;20521;-46
2022/03/10 08:25:34;;;;;;;19.43;12.27;;;5.10;60.10;;;;;;5005780;28;20865;-46
2022/03/10 08:28:01;;;;;;;18.03;10.90;;;5.40;58.80;;;;;;5015330;28;20456;-46
2022/03/10 08:30:28;;;;;;;19.30;12.90;;;5.60;58.10;;;;;;5014714;28;20562;-46
2022/03/10 08:32:55;;;;;;;18.60;13.33;;;5.90;57.60;;;;;;5011303;28;20538;-46
2022/03/10 08:35:22;;;;;;;17.53;11.53;;;6.20;57.10;;;;;;5019116;28;20513;-46
2022/03/10 08:37:48;;;;;;;20.60;13.83;;;6.50;56.90;;;;;;5018015;28;20452;-46
2022/03/10 08:40:17;;;;;;;15.70;12.10;;;6.70;55.70;;;;;;5016857;28;20459;-46
2022/03/10 08:42:44;;;;;;;19.50;13.87;;;6.90;55.70;;;;;;5020117;28;20499;-46
2022/03/10 08:45:11;;;;;;;16.27;12.10;;;7.10;55.10;;;;;;5003789;28;20541;-46
2022/03/10 08:47:38;;;;;;;20.67;12.73;;;7.30;54.60;;;;;;5017516;28;20499;-46
2022/03/10 08:50:06;;;;;;;21.57;11.80;;;7.50;53.00;;;;;;5016301;28;20436;-46
2022/03/10 08:52:33;;;;;;;14.63;11.03;;;7.70;52.80;;;;;;4999656;28;20469;-46
2022/03/10 08:55:00;;;;;;;15.57;12.87;;;7.90;52.60;;;;;;5022583;28;20488;-46
2022/03/10 08:57:26;;;;;;;18.13;11.50;;;8.00;51.60;;;;;;5014256;28;20447;-46
2022/03/10 08:59:53;;;;;;;17.20;12.47;;;8.10;50.70;;;;;;5021290;28;20478;-46
2022/03/10 09:02:21;;;;;;;16.20;12.23;;;8.20;50.40;;;;;;5012848;28;20483;-46
2022/03/10 09:04:50;;;;;;;15.53;11.30;;;8.30;50.30;;;;;;5021684;28;20455;-46
2022/03/10 09:07:17;;;;;;;21.10;12.37;;;8.40;50.30;;;;;;5017226;28;20468;-46
2022/03/10 09:09:43;;;;;;;13.90;11.90;;;8.50;50.40;;;;;;5018717;28;20468;-46
2022/03/10 09:12:10;;;;;;;18.87;12.10;;;8.60;50.00;;;;;;5019516;28;20468;-46
2022/03/10 09:14:37;;;;;;;16.50;11.93;;;8.70;49.70;;;;;;5018862;28;20491;-46
2022/03/10 09:17:04;;;;;;;21.10;12.30;;;8.80;49.60;;;;;;5032479;28;20468;-46
2022/03/10 09:19:31;;;;;;;14.90;11.83;;;8.80;48.70;;;;;;5023718;28;20860;-46
2022/03/10 09:21:59;;;;;;;13.80;11.40;;;8.80;48.40;;;;;;5017305;28;20464;-46
2022/03/10 09:24:30;;;;;;;21.40;11.97;;;8.90;48.70;;;;;;5009555;28;20489;-46
2022/03/10 09:26:58;;;;;;;16.77;11.70;;;8.90;48.40;;;;;;5021843;28;20537;-46
2022/03/10 09:29:25;;;;;;;18.60;12.67;;;9.00;48.10;;;;;;5015123;28;20463;-46
2022/03/10 09:31:52;;;;;;;13.83;11.47;;;9.00;48.70;;;;;;5016611;28;20554;-46
2022/03/10 09:34:19;;;;;;;18.03;12.10;;;9.10;48.70;;;;;;5015572;28;20496;-46
2022/03/10 09:36:45;;;;;;;14.33;11.23;;;9.30;49.00;;;;;;5020821;28;20463;-46
2022/03/10 09:39:14;;;;;;;18.13;11.53;;;9.30;48.30;;;;;;5018336;28;20510;-46
2022/03/10 09:41:41;;;;;;;15.73;11.70;;;9.40;47.50;;;;;;5020634;28;20957;-46
2022/03/10 09:44:19;;;;;;;17.87;11.97;;;9.60;47.20;;;;;;5018045;28;21007;-46
2022/03/10 09:46:51;;;;;;;16.23;11.60;;;9.60;47.50;;;;;;5015781;28;21014;-46
2022/03/10 09:49:20;;;;;;;13.83;10.90;;;9.80;47.40;;;;;;5023007;28;20468;-46
2022/03/10 09:51:49;;;;;;;15.50;12.23;;;9.90;46.80;;;;;;5020784;28;20452;-46
2022/03/10 09:54:16;;;;;;;14.10;11.63;;;10.10;46.50;;;;;;5015130;28;20498;-46
2022/03/10 09:56:43;;;;;;;15.10;11.30;;;10.30;46.20;;;;;;5017232;28;20440;-47
2022/03/10 09:59:12;;;;;;;13.73;11.77;;;10.50;45.90;;;;;;5004815;28;20549;-46
2022/03/10 10:01:39;;;;;;;15.33;12.10;;;10.70;45.80;;;;;;5016182;28;20877;-47
2022/03/10 10:04:14;;;;;;;17.87;11.73;;;10.90;45.70;;;;;;5021031;28;20452;-46
2022/03/10 10:07:00;;;;;;;15.40;10.97;;;11.20;44.90;;;;;;5016355;28;20599;-46
2022/03/10 10:09:56;;;;;;;14.17;11.83;;;11.50;44.20;;;;;;5016641;28;20479;-46
2022/03/10 10:12:29;;;;;;;16.63;11.80;;;11.60;43.80;;;;;;5017314;28;20478;-46
2022/03/10 10:14:58;;;;;;;14.37;11.03;;;11.80;44.10;;;;;;5020814;28;20949;-46
2022/03/10 10:17:29;;;;;;;16.10;11.60;;;12.10;44.40;;;;;;5004219;28;20513;-46
2022/03/10 10:20:16;;;;;;;17.03;12.30;;;12.40;43.00;;;;;;5018469;28;20459;-46
2022/03/10 10:22:45;;;;;;;16.80;12.13;;;12.80;43.40;;;;;;5018610;28;20479;-46
2022/03/10 10:25:12;;;;;;;17.47;14.03;;;13.10;42.80;;;;;;5022051;28;20813;-47
2022/03/10 10:27:39;;;;;;;17.47;12.77;;;13.40;41.30;;;;;;5019008;28;21190;-46
2022/03/10 10:30:07;;;;;;;17.43;12.80;;;13.60;41.00;;;;;;5008213;28;20807;-47
2022/03/10 10:32:43;;;;;;;14.43;11.73;;;14.00;40.70;;;;;;5016176;28;20471;-47
2022/03/10 10:35:13;;;;;;;14.77;12.50;;;14.30;39.50;;;;;;5017564;28;20499;-47
2022/03/10 10:37:47;;;;;;;14.40;12.07;;;14.60;38.90;;;;;;5010377;28;20464;-47
2022/03/10 10:40:20;;;;;;;15.63;11.47;;;15.00;38.80;;;;;;5015021;28;20451;-47
2022/03/10 10:42:47;;;;;;;17.87;11.40;;;15.30;37.20;;;;;;5014703;28;20460;-47
2022/03/10 10:45:38;;;;;;;16.20;13.27;;;15.50;36.90;;;;;;5013485;28;20483;-47
2022/03/10 10:48:08;;;;;;;16.07;10.80;;;15.70;37.50;;;;;;5015064;28;20898;-47
2022/03/10 10:50:41;;;;;;;14.93;11.10;;;16.00;37.00;;;;;;5030058;28;20522;-47
2022/03/10 10:53:08;;;;;;;17.60;12.73;;;16.20;36.90;;;;;;5020154;28;21041;-47
2022/03/10 10:55:37;;;;;;;15.07;12.27;;;16.40;37.00;;;;;;5000418;28;21049;-46
2022/03/10 10:58:09;;;;;;;11.53;10.33;;;16.50;35.60;;;;;;4999216;28;20463;-46
2022/03/10 11:00:42;;;;;;;14.70;11.00;;;16.60;35.50;;;;;;5013257;28;20555;-47
2022/03/10 11:03:22;;;;;;;13.93;11.60;;;16.60;35.30;;;;;;5015205;28;20459;-46
2022/03/10 11:05:49;;;;;;;15.70;12.57;;;16.80;35.80;;;;;;5013498;28;20805;-47
2022/03/10 11:08:18;;;;;;;17.80;11.67;;;17.00;36.10;;;;;;5018109;28;20456;-47
2022/03/10 11:10:45;;;;;;;14.60;12.47;;;17.20;35.80;;;;;;5023731;28;20462;-47
2022/03/10 11:13:11;;;;;;;13.60;12.20;;;17.30;35.10;;;;;;5017595;28;20970;-47
2022/03/10 11:15:41;;;;;;;16.53;11.90;;;17.30;34.00;;;;;;5021545;28;20486;-46
2022/03/10 11:18:13;;;;;;;16.10;12.20;;;17.40;34.00;;;;;;5019584;28;20551;-47
2022/03/10 11:20:44;;;;;;;15.07;11.60;;;17.50;34.60;;;;;;5019508;28;21029;-47
2022/03/10 11:23:33;;;;;;;14.03;10.67;;;17.70;34.30;;;;;;5019138;28;20987;-47
2022/03/10 11:26:19;;;;;;;12.10;10.90;;;17.80;33.50;;;;;;5018710;28;20455;-46
2022/03/10 11:28:47;;;;;;;13.67;11.00;;;18.00;33.30;;;;;;5020394;28;20459;-47
2022/03/10 11:31:14;;;;;;;14.50;11.90;;;18.00;33.00;;;;;;5027730;28;20543;-47
2022/03/10 11:33:43;;;;;;;17.60;10.77;;;18.10;33.60;;;;;;5016391;28;20518;-46
2022/03/10 11:36:21;;;;;;;13.10;10.73;;;18.10;33.30;;;;;;5020627;28;20491;-47
2022/03/10 11:39:04;;;;;;;10.43;9.33;;;18.10;32.80;;;;;;5018662;28;20461;-47
2022/03/10 11:41:45;;;;;;;15.07;11.00;;;18.10;32.80;;;;;;5019313;28;20474;-46
2022/03/10 11:44:13;;;;;;;13.00;10.37;;;18.00;32.80;;;;;;5020541;28;20864;-47
2022/03/10 11:46:54;;;;;;;12.00;9.60;;;17.80;32.70;;;;;;5022234;28;20502;-46
2022/03/10 11:49:21;;;;;;;12.93;9.63;;;17.70;33.10;;;;;;5007828;28;20465;-47
2022/03/10 11:51:52;;;;;;;14.23;10.40;;;17.70;34.00;;;;;;5016716;28;20460;-46
2022/03/10 11:54:20;;;;;;;13.63;10.50;;;17.50;33.40;;;;;;5022147;28;20462;-47
2022/03/10 11:56:47;;;;;;;11.60;9.87;;;17.50;33.30;;;;;;5018978;28;20973;-47
2022/03/10 11:59:19;;;;;;;13.33;11.53;;;17.40;33.80;;;;;;5016158;28;21044;-48
2022/03/10 12:01:46;;;;;;;11.83;10.53;;;17.40;33.70;;;;;;5021268;28;20872;-47
2022/03/10 12:04:22;;;;;;;12.63;10.33;;;17.30;34.00;;;;;;5017100;28;20493;-47
2022/03/10 12:06:56;;;;;;;14.37;10.17;;;17.30;33.90;;;;;;5034089;28;20538;-47
2022/03/10 12:09:29;;;;;;;15.50;11.00;;;17.20;34.10;;;;;;5019841;28;20458;-47
2022/03/10 12:12:19;;;;;;;13.30;10.40;;;17.10;33.60;;;;;;5019162;28;20452;-47
2022/03/10 12:15:23;;;;;;;11.83;9.73;;;17.00;33.90;;;;;;5021129;28;20494;-47
2022/03/10 12:17:55;;;;;;;17.13;10.87;;;16.90;34.40;;;;;;5018839;28;20468;-47
2022/03/10 12:20:38;;;;;;;13.13;10.50;;;16.90;34.60;;;;;;5002352;28;20459;-47
2022/03/10 12:23:12;;;;;;;10.67;9.60;;;16.90;34.20;;;;;;5018683;28;20511;-47
2022/03/10 12:26:02;;;;;;;13.27;11.20;;;16.90;34.30;;;;;;5018101;28;20478;-47
2022/03/10 12:28:35;;;;;;;18.40;11.50;;;16.80;34.30;;;;;;5022426;28;20463;-47
2022/03/10 12:31:16;;;;;;;12.77;9.83;;;16.70;34.50;;;;;;5017825;28;20976;-47
2022/03/10 12:33:47;;;;;;;11.90;10.10;;;16.70;34.60;;;;;;5025470;28;20464;-47
2022/03/10 12:36:33;;;;;;;11.10;9.93;;;16.80;34.90;;;;;;5017448;28;20518;-47
2022/03/10 12:39:13;;;;;;;15.27;10.67;;;16.90;35.70;;;;;;5016755;28;20452;-47
2022/03/10 12:41:47;;;;;;;11.83;9.50;;;17.00;34.70;;;;;;5024571;28;20543;-47
2022/03/10 12:44:18;;;;;;;11.57;9.93;;;16.90;34.30;;;;;;5016782;28;20578;-47
2022/03/10 12:46:49;;;;;;;12.40;9.53;;;16.90;34.30;;;;;;5021566;28;20591;-48
2022/03/10 12:49:37;;;;;;;11.73;8.50;;;16.90;34.80;;;;;;5018520;28;20488;-48